createdAt,value
2018-09-17T00:01:24.327Z,73.20
2018-09-17T00:03:53.226Z,74.10
2018-09-17T00:06:23.034Z,74.60
2018-09-17T00:08:52.060Z,72.70
2018-09-17T00:11:20.915Z,72.90
2018-09-17T00:13:49.908Z,73.60
2018-09-17T00:16:18.647Z,73.00
2018-09-17T00:18:50.371Z,72.90
2018-09-17T00:21:19.208Z,72.80
2018-09-17T00:23:49.032Z,72.90
2018-09-17T00:26:17.965Z,73.50
2018-09-17T00:28:47.933Z,73.00
2018-09-17T00:31:16.761Z,73.80
2018-09-17T00:33:45.735Z,74.20
2018-09-17T00:37:43.964Z,73.50
2018-09-17T00:40:12.412Z,74.30
2018-09-17T00:42:41.412Z,74.10
2018-09-17T00:45:10.308Z,74.50
2018-09-17T00:47:39.509Z,74.40
2018-09-17T00:50:08.564Z,73.90
2018-09-17T00:52:37.385Z,73.80
2018-09-17T00:55:06.401Z,75.30
2018-09-17T00:57:35.100Z,74.00
2018-09-17T01:00:03.321Z,73.80
2018-09-17T01:02:32.044Z,73.50
2018-09-17T01:05:00.935Z,73.50
2018-09-17T01:07:29.656Z,74.40
2018-09-17T01:09:58.265Z,73.80
2018-09-17T01:12:27.206Z,73.40
2018-09-17T01:14:56.316Z,73.60
2018-09-17T01:17:24.621Z,73.80
2018-09-17T01:19:53.284Z,73.70
2018-09-17T01:22:22.348Z,73.70
2018-09-17T01:24:52.173Z,73.20
2018-09-17T01:27:20.881Z,74.40
2018-09-17T01:29:49.514Z,74.60
2018-09-17T01:32:18.420Z,76.40
2018-09-17T01:34:47.264Z,74.60
2018-09-17T01:37:15.988Z,73.90
2018-09-17T01:39:44.916Z,75.20
2018-09-17T01:42:14.238Z,76.40
2018-09-17T01:44:43.064Z,73.70
2018-09-17T01:47:12.019Z,73.20
2018-09-17T01:49:40.744Z,73.20
2018-09-17T01:52:09.763Z,74.50
2018-09-17T01:54:37.992Z,73.10
2018-09-17T01:57:06.700Z,74.10
2018-09-17T01:59:35.144Z,73.50
2018-09-17T02:02:03.963Z,73.10
2018-09-17T02:04:33.108Z,73.90
2018-09-17T02:07:01.939Z,73.50
2018-09-17T02:09:30.998Z,74.30
2018-09-17T02:11:59.628Z,73.60
2018-09-17T02:14:28.411Z,74.30
2018-09-17T02:16:57.196Z,73.70
2018-09-17T02:19:26.464Z,74.50
2018-09-17T02:21:55.609Z,73.80
2018-09-17T02:24:24.750Z,75.30
2018-09-17T02:26:53.377Z,74.30
2018-09-17T02:29:22.164Z,73.60
2018-09-17T02:31:51.036Z,73.20
2018-09-17T02:34:19.940Z,74.00
2018-09-17T02:36:48.540Z,73.50
2018-09-17T02:39:17.960Z,75.40
2018-09-17T02:41:46.704Z,74.80
2018-09-17T02:44:15.856Z,74.00
2018-09-17T02:46:45.002Z,74.10
2018-09-17T02:49:13.844Z,74.70
2018-09-17T02:51:42.493Z,73.80
2018-09-17T02:54:11.003Z,73.90
2018-09-17T02:56:40.079Z,74.60
2018-09-17T02:59:11.747Z,74.80
2018-09-17T03:01:41.378Z,73.60
2018-09-17T03:04:12.398Z,73.30
2018-09-17T03:06:42.210Z,74.30
2018-09-17T03:09:11.727Z,73.80
2018-09-17T03:11:41.264Z,73.90
2018-09-17T03:14:10.608Z,73.60
2018-09-17T03:16:50.476Z,76.30
2018-09-17T03:19:19.989Z,75.80
2018-09-17T03:21:48.871Z,73.90
2018-09-17T03:24:17.689Z,75.20
2018-09-17T03:26:47.292Z,74.80
2018-09-17T03:29:17.393Z,74.60
2018-09-17T03:31:46.154Z,75.00
2018-09-17T03:34:15.337Z,75.00
2018-09-17T03:36:44.286Z,76.30
2018-09-17T03:39:13.913Z,75.50
2018-09-17T03:41:43.156Z,75.50
2018-09-17T03:44:11.829Z,75.00
2018-09-17T03:46:40.595Z,75.00
2018-09-17T03:49:09.755Z,75.70
2018-09-17T03:51:40.270Z,74.50
2018-09-17T03:54:08.744Z,75.20
2018-09-17T03:56:37.352Z,75.00
2018-09-17T03:59:06.401Z,76.30
2018-09-17T04:01:35.034Z,74.80
2018-09-17T04:04:03.656Z,76.40
2018-09-17T04:06:33.058Z,74.50
2018-09-17T04:13:50.269Z,75.30
2018-09-17T04:16:19.198Z,76.60
2018-09-17T04:18:47.896Z,76.50
2018-09-17T04:21:16.338Z,76.10
2018-09-17T04:23:45.060Z,76.70
2018-09-17T04:26:13.698Z,75.70
2018-09-17T04:28:42.334Z,76.50
2018-09-17T04:31:11.089Z,76.00
2018-09-17T04:33:41.128Z,76.10
2018-09-17T04:36:10.434Z,75.60
2018-09-17T04:38:39.251Z,76.00
2018-09-17T04:41:08.044Z,77.10
2018-09-17T04:43:36.852Z,75.80
2018-09-17T04:46:05.488Z,75.70
2018-09-17T04:48:34.142Z,75.70
2018-09-17T04:51:02.860Z,76.00
2018-09-17T04:53:31.489Z,77.30
2018-09-17T04:56:00.385Z,75.80
2018-09-17T04:58:29.305Z,75.80
2018-09-17T05:00:58.246Z,75.70
2018-09-17T05:03:27.145Z,75.40
2018-09-17T05:05:55.355Z,75.30
2018-09-17T05:08:24.528Z,75.60
2018-09-17T05:10:53.353Z,76.10
2018-09-17T05:13:22.277Z,75.60
2018-09-17T05:15:51.264Z,75.00
2018-09-17T05:18:19.894Z,74.60
2018-09-17T05:20:48.933Z,74.70
2018-09-17T05:23:17.804Z,75.50
2018-09-17T05:25:47.433Z,75.30
2018-09-17T05:28:16.152Z,75.20
2018-09-17T05:30:45.340Z,76.30
2018-09-17T05:33:13.920Z,75.30
2018-09-17T05:35:42.544Z,75.00
2018-09-17T05:38:11.832Z,75.30
2018-09-17T05:40:40.029Z,75.00
2018-09-17T05:43:08.836Z,74.90
2018-09-17T05:45:37.662Z,75.20
2018-09-17T05:48:06.337Z,75.30
2018-09-17T05:50:35.395Z,74.90
2018-09-17T05:53:04.125Z,75.00
2018-09-17T05:55:32.920Z,75.50
2018-09-17T05:58:01.653Z,75.80
2018-09-17T06:00:30.276Z,75.70
2018-09-17T06:02:59.715Z,75.00
2018-09-17T06:05:28.228Z,75.50
2018-09-17T06:07:56.761Z,75.10
2018-09-17T06:10:26.616Z,75.90
2018-09-17T06:12:55.492Z,75.60
2018-09-17T06:15:24.430Z,76.10
2018-09-17T06:17:53.286Z,76.10
2018-09-17T06:20:21.852Z,76.30
2018-09-17T06:22:50.594Z,77.10
2018-09-17T06:25:19.301Z,76.90
2018-09-17T06:27:48.159Z,80.60
2018-09-17T06:31:41.285Z,76.70
2018-09-17T06:34:10.032Z,76.80
2018-09-17T06:36:38.738Z,77.00
2018-09-17T06:39:08.109Z,78.00
2018-09-17T06:41:36.532Z,75.80
2018-09-17T06:44:05.110Z,76.40
2018-09-17T06:46:33.970Z,80.30
2018-09-17T06:49:02.832Z,79.60
2018-09-17T06:51:31.588Z,79.30
2018-09-17T06:54:01.817Z,80.00
2018-09-17T06:56:31.610Z,80.70
2018-09-17T06:59:00.708Z,78.80
2018-09-17T07:01:29.543Z,78.70
2018-09-17T07:03:59.047Z,78.20
2018-09-17T07:06:27.854Z,78.10
2018-09-17T07:08:56.692Z,77.80
2018-09-17T07:11:25.416Z,78.40
2018-09-17T07:13:54.128Z,80.60
2018-09-17T07:16:22.949Z,80.80
2018-09-17T07:18:51.623Z,78.50
2018-09-17T07:21:20.350Z,78.00
2018-09-17T07:23:48.854Z,79.80
2018-09-17T07:26:17.727Z,80.30
2018-09-17T07:28:46.469Z,80.20
2018-09-17T07:31:15.500Z,81.50
2018-09-17T07:33:44.070Z,81.20
2018-09-17T07:36:12.819Z,79.90
2018-09-17T07:38:41.633Z,81.20
2018-09-17T07:41:10.380Z,80.90
2018-09-17T07:43:39.116Z,80.80
2018-09-17T07:46:08.074Z,81.00
2018-09-17T07:48:36.956Z,80.30
2018-09-17T07:51:06.017Z,78.40
2018-09-17T07:53:34.631Z,78.50
2018-09-17T07:56:03.553Z,79.40
2018-09-17T07:58:32.151Z,80.30
2018-09-17T08:01:01.084Z,79.10
2018-09-17T08:03:30.149Z,78.90
2018-09-17T08:05:58.765Z,78.80
2018-09-17T08:08:27.484Z,79.20
2018-09-17T08:10:56.230Z,79.60
2018-09-17T08:13:25.044Z,79.20
2018-09-17T08:15:53.684Z,79.00
2018-09-17T08:18:22.592Z,81.00
2018-09-17T08:20:51.516Z,81.30
2018-09-17T08:23:20.165Z,81.40
2018-09-17T08:25:49.145Z,80.00
2018-09-17T08:28:17.664Z,79.60
2018-09-17T08:30:46.316Z,79.80
2018-09-17T08:33:15.133Z,80.20
2018-09-17T08:35:43.662Z,79.60
2018-09-17T08:38:12.434Z,79.50
2018-09-17T08:40:41.288Z,79.70
2018-09-17T08:43:10.252Z,78.70
2018-09-17T08:45:38.734Z,79.80
2018-09-17T08:48:08.832Z,81.20
2018-09-17T08:50:37.180Z,80.10
2018-09-17T08:53:06.660Z,80.30
2018-09-17T08:55:41.065Z,79.50
2018-09-17T08:58:14.766Z,80.60
2018-09-17T09:00:48.571Z,79.40
2018-09-17T09:03:22.388Z,78.00
2018-09-17T09:06:59.085Z,78.90
2018-09-17T09:09:28.228Z,79.20
2018-09-17T09:12:04.416Z,79.00
2018-09-17T09:14:38.001Z,79.70
2018-09-17T09:17:07.405Z,79.60
2018-09-17T09:19:36.555Z,79.00
2018-09-17T09:22:05.380Z,80.00
2018-09-17T09:24:34.976Z,79.20
2018-09-17T09:27:03.958Z,79.40
2018-09-17T09:29:32.525Z,79.50
2018-09-17T09:32:01.333Z,79.60
2018-09-17T09:34:30.246Z,79.60
2018-09-17T09:36:59.076Z,79.10
2018-09-17T09:39:27.905Z,79.40
2018-09-17T09:41:57.839Z,78.70
2018-09-17T09:44:26.785Z,79.40
2018-09-17T09:46:55.596Z,79.20
2018-09-17T09:49:24.686Z,79.10
2018-09-17T09:51:52.945Z,78.30
2018-09-17T09:54:21.192Z,78.60
2018-09-17T09:56:50.228Z,78.60
2018-09-17T09:59:18.988Z,79.40
2018-09-17T10:01:58.204Z,78.60
2018-09-17T10:04:26.747Z,78.20
2018-09-17T10:06:55.828Z,79.00
2018-09-17T10:09:29.752Z,79.10
2018-09-17T10:12:04.248Z,78.50
2018-09-17T10:14:38.377Z,78.70
2018-09-17T10:17:12.018Z,79.00
2018-09-17T10:19:46.035Z,79.60
2018-09-17T10:22:14.707Z,79.00
2018-09-17T10:24:44.285Z,78.80
2018-09-17T10:27:13.205Z,78.70
2018-09-17T10:29:42.341Z,79.10
2018-09-17T10:32:10.964Z,78.90
2018-09-17T10:34:40.194Z,79.00
2018-09-17T10:37:09.250Z,78.50
2018-09-17T10:39:38.401Z,79.00
2018-09-17T10:42:07.574Z,79.50
2018-09-17T10:44:36.680Z,79.40
2018-09-17T10:47:05.308Z,78.80
2018-09-17T10:49:34.345Z,78.50
2018-09-17T10:52:02.861Z,78.20
2018-09-17T10:54:31.572Z,78.40
2018-09-17T10:57:00.828Z,78.20
2018-09-17T10:59:29.967Z,78.50
2018-09-17T11:01:58.688Z,78.80
2018-09-17T11:04:27.348Z,78.80
2018-09-17T11:06:56.201Z,78.20
2018-09-17T11:09:24.830Z,78.40
2018-09-17T11:11:53.358Z,78.80
2018-09-17T11:14:21.774Z,78.90
2018-09-17T11:16:50.394Z,78.40
2018-09-17T11:19:18.929Z,78.20
2018-09-17T11:21:47.832Z,79.00
2018-09-17T11:24:16.353Z,78.80
2018-09-17T11:26:44.598Z,79.20
2018-09-17T11:29:13.546Z,77.90
2018-09-17T11:31:42.696Z,77.70
2018-09-17T11:34:11.707Z,76.50
2018-09-17T11:36:40.791Z,75.60
2018-09-17T11:39:10.864Z,75.10
2018-09-17T11:41:40.040Z,75.00
2018-09-17T11:44:08.602Z,75.20
2018-09-17T11:46:37.912Z,74.50
2018-09-17T11:49:06.912Z,74.00
2018-09-17T11:51:35.850Z,73.30
2018-09-17T11:54:05.092Z,73.00
2018-09-17T11:56:33.356Z,71.90
2018-09-17T11:59:01.673Z,71.30
2018-09-17T12:01:35.965Z,71.20
2018-09-17T12:05:08.192Z,71.00
2018-09-17T12:07:41.757Z,70.70
2018-09-17T12:10:11.028Z,70.90
2018-09-17T12:12:40.254Z,71.60
2018-09-17T12:15:09.085Z,70.40
2018-09-17T12:17:38.549Z,70.40
2018-09-17T12:20:06.981Z,69.50
2018-09-17T12:22:36.104Z,70.10
2018-09-17T12:25:04.603Z,69.80
2018-09-17T12:27:33.628Z,69.80
2018-09-17T12:30:02.383Z,67.70
2018-09-17T12:32:31.201Z,68.30
2018-09-17T12:34:59.753Z,68.20
2018-09-17T12:37:28.908Z,67.60
2018-09-17T12:39:57.841Z,68.10
2018-09-17T12:42:26.874Z,67.30
2018-09-17T12:44:56.011Z,67.70
2018-09-17T12:47:24.922Z,65.90
2018-09-17T12:49:54.063Z,67.20
2018-09-17T12:52:23.127Z,66.00
2018-09-17T12:54:52.267Z,67.50
2018-09-17T12:57:20.797Z,62.90
2018-09-17T12:59:49.792Z,65.40
2018-09-17T13:02:18.138Z,65.10
2018-09-17T13:04:47.137Z,64.00
2018-09-17T13:07:15.381Z,62.70
2018-09-17T13:09:43.989Z,62.20
2018-09-17T13:12:12.884Z,64.50
2018-09-17T13:14:41.859Z,62.70
2018-09-17T13:17:10.595Z,62.90
2018-09-17T13:19:39.442Z,62.90
2018-09-17T13:22:08.376Z,60.20
2018-09-17T13:24:36.956Z,62.60
2018-09-17T13:28:34.641Z,60.50
2018-09-17T13:31:03.452Z,61.50
2018-09-17T13:33:32.404Z,58.90
2018-09-17T13:36:01.126Z,61.50
2018-09-17T13:38:30.036Z,58.00
2018-09-17T13:40:59.000Z,58.40
2018-09-17T13:43:27.650Z,60.90
2018-09-17T13:45:56.401Z,59.10
2018-09-17T13:48:25.434Z,59.90
2018-09-17T13:50:54.373Z,59.00
2018-09-17T13:53:23.418Z,58.20
2018-09-17T13:55:52.274Z,57.80
2018-09-17T13:58:21.105Z,56.90
2018-09-17T14:00:50.152Z,58.50
2018-09-17T14:03:19.100Z,58.50
2018-09-17T14:05:47.243Z,59.10
2018-09-17T14:08:16.211Z,56.40
2018-09-17T14:10:46.259Z,55.90
2018-09-17T14:13:15.345Z,56.00
2018-09-17T14:16:20.159Z,54.30
2018-09-17T14:18:48.536Z,56.40
2018-09-17T14:21:20.444Z,56.30
2018-09-17T14:23:48.726Z,56.70
2018-09-17T14:26:17.379Z,56.50
2018-09-17T14:28:46.101Z,57.10
2018-09-17T14:31:15.304Z,57.90
2018-09-17T14:33:43.497Z,56.50
2018-09-17T14:36:11.885Z,56.30
2018-09-17T14:38:40.425Z,56.50
2018-09-17T14:41:10.416Z,56.10
2018-09-17T14:43:39.368Z,58.30
2018-09-17T14:46:08.358Z,58.00
2018-09-17T14:50:06.934Z,55.50
2018-09-17T14:52:35.320Z,58.50
2018-09-17T14:55:04.468Z,58.90
2018-09-17T14:57:33.207Z,56.50
2018-09-17T15:00:02.337Z,58.30
2018-09-17T15:02:31.513Z,57.40
2018-09-17T15:05:00.241Z,55.20
2018-09-17T15:07:29.216Z,56.10
2018-09-17T15:09:57.513Z,57.00
2018-09-17T15:12:26.369Z,57.60
2018-09-17T15:14:55.124Z,58.80
2018-09-17T15:17:24.211Z,57.70
2018-09-17T15:19:52.960Z,57.60
2018-09-17T15:22:23.992Z,57.80
2018-09-17T15:24:53.027Z,54.40
2018-09-17T15:27:22.236Z,56.10
2018-09-17T15:29:51.833Z,55.80
2018-09-17T15:32:20.531Z,57.30
2018-09-17T15:34:49.672Z,58.50
2018-09-17T15:37:17.933Z,57.50
2018-09-17T15:39:46.454Z,58.50
2018-09-17T15:42:16.052Z,58.60
2018-09-17T15:44:44.964Z,59.40
2018-09-17T15:47:14.015Z,61.20
2018-09-17T15:49:42.877Z,59.60
2018-09-17T15:52:11.398Z,61.50
2018-09-17T15:54:41.152Z,60.70
2018-09-17T15:57:10.513Z,62.60
2018-09-17T15:59:39.089Z,63.00
2018-09-17T16:02:07.684Z,61.60
2018-09-17T16:04:36.642Z,63.50
2018-09-17T16:07:05.841Z,60.10
2018-09-17T16:09:34.065Z,63.40
2018-09-17T16:12:03.837Z,64.40
2018-09-17T16:14:33.778Z,64.10
2018-09-17T16:17:02.868Z,62.60
2018-09-17T16:26:30.682Z,64.10
2018-09-17T16:29:00.012Z,65.20
2018-09-17T16:31:28.669Z,60.70
2018-09-17T16:33:56.897Z,61.10
2018-09-17T16:36:25.724Z,62.70
2018-09-17T16:38:54.460Z,61.60
2018-09-17T16:41:23.528Z,61.30
2018-09-17T16:43:52.440Z,61.90
2018-09-17T16:46:21.520Z,61.50
2018-09-17T16:48:50.344Z,59.50
2018-09-17T16:51:19.282Z,59.90
2018-09-17T16:53:48.265Z,58.70
2018-09-17T16:56:17.325Z,56.50
2018-09-17T16:58:46.248Z,58.10
2018-09-17T17:01:15.144Z,57.70
2018-09-17T17:03:44.002Z,55.70
2018-09-17T17:06:13.409Z,57.10
2018-09-17T17:08:41.684Z,58.40
2018-09-17T17:11:10.625Z,58.60
2018-09-17T17:13:39.653Z,59.20
2018-09-17T17:16:08.739Z,58.20
2018-09-17T17:18:37.760Z,60.00
2018-09-17T17:21:06.352Z,59.80
2018-09-17T17:23:35.452Z,60.00
2018-09-17T17:26:04.120Z,59.90
2018-09-17T17:28:32.936Z,59.60
2018-09-17T17:31:01.740Z,60.40
2018-09-17T17:33:31.149Z,60.70
2018-09-17T17:36:00.096Z,60.80
2018-09-17T17:38:28.917Z,60.70
2018-09-17T17:41:00.980Z,60.60
2018-09-17T17:43:29.397Z,61.10
2018-09-17T17:45:58.174Z,61.00
2018-09-17T17:48:27.020Z,61.50
2018-09-17T17:50:55.725Z,61.80
2018-09-17T17:53:24.715Z,61.90
2018-09-17T17:55:53.408Z,62.30
2018-09-17T17:58:23.323Z,62.30
2018-09-17T18:00:52.186Z,62.60
2018-09-17T18:03:20.761Z,62.70
2018-09-17T18:05:49.486Z,62.80
2018-09-17T18:08:18.448Z,63.10
2018-09-17T18:10:47.036Z,63.10
2018-09-17T18:13:16.063Z,63.20
2018-09-17T18:15:44.841Z,63.30
2018-09-17T18:18:14.541Z,63.30
2018-09-17T18:20:44.538Z,63.50
2018-09-17T18:23:13.196Z,63.60
2018-09-17T18:25:43.211Z,64.30
2018-09-17T18:28:12.054Z,63.70
2018-09-17T18:30:40.765Z,63.80
2018-09-17T18:33:09.503Z,64.00
2018-09-17T18:35:39.183Z,64.00
2018-09-17T18:38:08.083Z,64.10
2018-09-17T18:40:43.637Z,64.20
2018-09-17T18:43:13.094Z,64.20
2018-09-17T18:45:41.838Z,64.30
2018-09-17T18:48:10.825Z,64.40
2018-09-17T18:50:39.948Z,64.50
2018-09-17T18:53:08.928Z,64.60
2018-09-17T18:55:37.698Z,64.70
2018-09-17T18:58:06.475Z,64.80
2018-09-17T19:00:36.221Z,64.70
2018-09-17T19:03:05.454Z,64.90
2018-09-17T19:05:34.089Z,65.00
2018-09-17T19:08:02.859Z,65.00
2018-09-17T19:10:31.586Z,64.90
2018-09-17T19:13:00.133Z,65.30
2018-09-17T19:15:34.751Z,65.20
2018-09-17T19:18:21.385Z,65.10
2018-09-17T19:20:50.795Z,65.30
2018-09-17T19:23:27.113Z,65.10
2018-09-17T19:25:56.850Z,65.40
2018-09-17T19:28:30.502Z,65.30
2018-09-17T19:30:59.265Z,65.30
2018-09-17T19:33:28.201Z,65.50
2018-09-17T19:35:57.199Z,65.40
2018-09-17T19:38:32.631Z,65.40
2018-09-17T19:41:03.232Z,65.60
2018-09-17T19:43:32.128Z,65.60
2018-09-17T19:46:06.820Z,65.80
2018-09-17T19:48:35.300Z,65.70
2018-09-17T19:51:10.631Z,65.70
2018-09-17T19:53:42.092Z,66.30
2018-09-17T19:56:11.165Z,66.10
2018-09-17T19:58:45.697Z,66.30
2018-09-17T20:01:14.257Z,66.10
2018-09-17T20:03:42.996Z,66.40
2018-09-17T20:06:17.071Z,66.70
2018-09-17T20:08:52.065Z,66.50
2018-09-17T20:11:20.323Z,66.60
2018-09-17T20:13:49.484Z,66.30
2018-09-17T20:16:19.141Z,66.70
2018-09-17T20:18:49.909Z,67.00
2018-09-17T20:21:19.429Z,66.70
2018-09-17T20:23:48.328Z,68.00
2018-09-17T20:26:16.921Z,68.50
2018-09-17T20:28:45.799Z,68.70
2018-09-17T20:31:14.636Z,67.80
2018-09-17T20:33:43.559Z,68.00
2018-09-17T20:36:12.352Z,67.70
2018-09-17T20:38:42.728Z,67.50
2018-09-17T20:41:11.105Z,68.30
2018-09-17T20:43:39.956Z,68.10
2018-09-17T20:46:08.647Z,67.60
2018-09-17T20:48:37.517Z,68.10
2018-09-17T20:51:06.164Z,67.30
2018-09-17T20:53:35.293Z,67.50
2018-09-17T20:56:05.325Z,68.40
2018-09-17T20:58:34.192Z,67.80
2018-09-17T21:01:03.022Z,67.60
2018-09-17T21:03:32.015Z,68.60
2018-09-17T21:06:00.562Z,67.80
2018-09-17T21:08:29.273Z,67.50
2018-09-17T21:10:58.364Z,68.40
2018-09-17T21:13:27.124Z,68.30
2018-09-17T21:15:57.014Z,68.20
2018-09-17T21:18:25.652Z,67.90
2018-09-17T21:20:57.557Z,68.50
2018-09-17T21:23:26.610Z,68.60
2018-09-17T21:25:56.422Z,69.00
2018-09-17T21:28:25.518Z,68.80
2018-09-17T21:30:54.255Z,69.50
2018-09-17T21:33:22.990Z,69.80
2018-09-17T21:35:52.010Z,69.10
2018-09-17T21:38:22.465Z,70.00
2018-09-17T21:40:51.060Z,69.70
2018-09-17T21:43:22.811Z,71.10
2018-09-17T21:45:51.704Z,70.70
2018-09-17T21:48:21.890Z,69.60
2018-09-17T21:50:50.360Z,70.20
2018-09-17T21:53:19.194Z,70.00
2018-09-17T21:55:48.257Z,71.60
2018-09-17T21:58:16.714Z,71.00
2018-09-17T22:01:06.078Z,70.90
2018-09-17T22:03:35.434Z,70.00
2018-09-17T22:06:04.271Z,70.20
2018-09-17T22:08:33.005Z,70.80
2018-09-17T22:11:01.670Z,70.20
2018-09-17T22:13:30.339Z,70.30
2018-09-17T22:15:59.231Z,71.10
2018-09-17T22:18:27.722Z,70.30
2018-09-17T22:20:56.289Z,72.10
2018-09-17T22:23:25.112Z,70.70
2018-09-17T22:25:54.024Z,70.50
2018-09-17T22:28:22.945Z,70.50
2018-09-17T22:30:51.667Z,70.70
2018-09-17T22:33:20.809Z,71.30
2018-09-17T22:35:49.839Z,70.20
2018-09-17T22:38:19.717Z,71.40
2018-09-17T22:40:48.748Z,71.50
2018-09-17T22:43:17.657Z,71.80
2018-09-17T22:45:47.609Z,71.60
2018-09-17T22:48:16.757Z,71.60
2018-09-17T22:50:46.527Z,71.00
2018-09-17T22:53:15.309Z,73.00
2018-09-17T22:55:44.225Z,70.80
2018-09-17T22:58:13.023Z,71.30
2018-09-17T23:00:41.864Z,70.80
2018-09-17T23:03:10.791Z,70.30
2018-09-17T23:05:39.546Z,71.80
2018-09-17T23:08:08.628Z,71.80
2018-09-17T23:10:37.137Z,71.40
2018-09-17T23:13:06.010Z,71.50
2018-09-17T23:15:34.804Z,70.70
2018-09-17T23:18:03.525Z,70.80
2018-09-17T23:20:32.426Z,71.90
2018-09-17T23:23:01.025Z,72.10
2018-09-17T23:25:29.765Z,70.50
2018-09-17T23:27:58.873Z,71.30
2018-09-17T23:30:27.463Z,70.80
2018-09-17T23:32:56.395Z,71.30
2018-09-17T23:35:25.413Z,71.60
2018-09-17T23:37:54.577Z,71.00
2018-09-17T23:40:23.208Z,70.80
2018-09-17T23:42:52.326Z,70.70
2018-09-17T23:45:21.124Z,71.60
2018-09-17T23:47:50.329Z,70.70
2018-09-17T23:50:18.849Z,70.60
2018-09-17T23:52:47.169Z,71.30
2018-09-17T23:55:16.576Z,70.60
2018-09-17T23:57:44.901Z,70.60
